Time;durP1;ratioP1;P1;durP2;ratioP2;P2;SDS_P1;SDS_P2;PMS_P1;PMS_P2;Temp;Humidity;BMP_temperature;BMP_pressure;BME280_temperature;BME280_humidity;BME280_pressure;Samples;Min_cycle;Max_cycle;Signal;HPM_P1;HPM_P2
2023/08/02 00:02:15;;;;;;;0.93;0.60;;;15.60;99.90;15.70;99339.00;;;;4986168;27;108618;-65
2023/08/02 00:04:41;;;;;;;3.03;0.82;;;15.60;99.90;15.70;99340.00;;;;4992388;27;118695;-66
2023/08/02 00:07:07;;;;;;;1.42;0.70;;;15.60;99.90;15.60;99335.00;;;;5001930;27;88952;-65
2023/08/02 00:09:33;;;;;;;0.68;0.50;;;15.60;99.90;15.60;99339.00;;;;4991280;27;86931;-65
2023/08/02 00:11:59;;;;;;;0.55;0.55;;;15.50;99.90;15.60;99329.00;;;;4988441;27;108756;-66
2023/08/02 00:14:25;;;;;;;0.85;0.60;;;15.50;99.90;15.50;99332.00;;;;4994301;27;89382;-66
2023/08/02 00:16:51;;;;;;;4.68;0.90;;;15.50;99.90;15.50;99340.00;;;;4995416;27;89244;-65
2023/08/02 00:19:17;;;;;;;0.95;0.80;;;15.50;99.90;15.50;99342.00;;;;4995186;27;110980;-63
2023/08/02 00:21:43;;;;;;;0.38;0.38;;;15.40;99.90;15.50;99334.00;;;;4995703;27;87732;-64
2023/08/02 00:24:10;;;;;;;0.93;0.68;;;15.40;99.90;15.40;99332.00;;;;4988530;27;111067;-67
2023/08/02 00:26:35;;;;;;;0.95;0.95;;;15.40;99.90;15.40;99328.00;;;;4998455;27;87720;-66
2023/08/02 00:29:01;;;;;;;0.40;0.40;;;15.30;99.90;15.40;99333.00;;;;4993802;27;111039;-66
2023/08/02 00:31:27;;;;;;;0.55;0.55;;;15.30;99.90;15.30;99336.00;;;;4993053;27;87860;-65
2023/08/02 00:33:53;;;;;;;0.77;0.70;;;15.30;99.90;15.30;99345.00;;;;4991733;27;115599;-66
2023/08/02 00:36:18;;;;;;;0.80;0.80;;;15.30;99.90;15.30;99334.00;;;;4995662;27;116985;-66
2023/08/02 00:38:44;;;;;;;1.45;0.57;;;15.30;99.90;15.30;99338.00;;;;4994401;27;109714;-65
2023/08/02 00:41:10;;;;;;;0.77;0.50;;;15.20;99.90;15.30;99341.00;;;;4998244;27;106584;-65
2023/08/02 00:43:44;;;;;;;1.35;0.57;;;15.20;99.90;15.30;99334.00;;;;5009870;27;90075;-66
2023/08/02 00:46:13;;;;;;;0.28;0.28;;;15.20;99.90;15.30;99344.00;;;;4994219;27;88223;-65
2023/08/02 00:48:39;;;;;;;0.73;0.73;;;15.20;99.90;15.30;99338.00;;;;4997746;27;87855;-65
2023/08/02 00:51:08;;;;;;;0.75;0.60;;;15.20;99.90;15.30;99339.00;;;;4998835;27;87797;-65
2023/08/02 00:53:34;;;;;;;0.90;0.47;;;15.30;99.90;15.40;99342.00;;;;5002625;27;88646;-65
2023/08/02 00:56:01;;;;;;;0.75;0.75;;;15.30;99.90;15.40;99330.00;;;;4998853;27;106470;-65
2023/08/02 00:58:26;;;;;;;0.55;0.55;;;15.30;99.90;15.40;99338.00;;;;4994875;27;110382;-66
2023/08/02 01:00:52;;;;;;;0.90;0.55;;;15.30;99.90;15.40;99335.00;;;;4993180;27;87858;-65
2023/08/02 01:03:18;;;;;;;0.95;0.60;;;15.40;99.90;15.50;99338.00;;;;4995339;28;117625;-65
2023/08/02 01:05:56;;;;;;;3.60;0.93;;;15.40;99.90;15.50;99341.00;;;;4992684;28;102905;-65
2023/08/02 01:08:32;;;;;;;0.80;0.57;;;15.40;99.90;15.50;99335.00;;;;4993865;27;87771;-65
2023/08/02 01:11:13;;;;;;;1.75;0.40;;;15.50;99.90;15.60;99333.00;;;;4991434;27;97201;-65
2023/08/02 01:13:47;;;;;;;0.68;0.57;;;15.50;99.90;15.60;99331.00;;;;4987616;28;100594;-65
2023/08/02 01:16:15;;;;;;;0.50;0.50;;;15.50;99.90;15.60;99328.00;;;;4986792;27;88676;-65
2023/08/02 01:18:41;;;;;;;1.10;0.60;;;15.60;99.90;15.70;99328.00;;;;4987815;27;103640;-67
2023/08/02 01:21:07;;;;;;;0.43;0.40;;;15.60;99.90;15.80;99335.00;;;;4985466;27;107849;-66
2023/08/02 01:23:32;;;;;;;0.32;0.32;;;15.70;99.90;15.80;99329.00;;;;4991017;27;116604;-66
2023/08/02 01:25:59;;;;;;;1.40;1.10;;;15.70;99.90;15.80;99324.00;;;;4988667;27;117057;-65
2023/08/02 01:28:27;;;;;;;1.75;1.08;;;15.70;99.90;15.90;99340.00;;;;4996411;27;110852;-65
2023/08/02 01:30:53;;;;;;;0.40;0.40;;;15.80;99.90;15.90;99329.00;;;;4997234;27;88807;-64
2023/08/02 01:33:21;;;;;;;2.17;0.77;;;15.80;99.90;16.00;99337.00;;;;4990282;27;116395;-66
2023/08/02 01:35:47;;;;;;;1.10;0.70;;;15.90;99.90;16.00;99343.00;;;;4994755;27;87799;-65
2023/08/02 01:38:12;;;;;;;0.95;0.68;;;15.90;99.90;16.00;99333.00;;;;4990719;27;109538;-65
2023/08/02 01:40:38;;;;;;;0.35;0.35;;;15.90;99.90;16.00;99345.00;;;;4989068;27;109305;-66
2023/08/02 01:43:03;;;;;;;2.45;0.80;;;15.90;99.90;16.00;99338.00;;;;4989342;27;118306;-66
2023/08/02 01:45:29;;;;;;;0.22;0.22;;;16.00;99.90;16.00;99338.00;;;;4986177;27;113920;-66
2023/08/02 01:47:55;;;;;;;0.73;0.73;;;16.00;99.90;16.00;99339.00;;;;4979276;27;110326;-65
2023/08/02 01:50:20;;;;;;;1.52;0.82;;;15.90;99.90;16.00;99326.00;;;;4992367;27;87876;-65
2023/08/02 01:52:49;;;;;;;0.60;0.60;;;16.00;99.90;16.00;99331.00;;;;4994207;27;117318;-66
2023/08/02 01:55:17;;;;;;;0.57;0.57;;;16.00;99.90;16.00;99331.00;;;;4990641;27;88796;-67
2023/08/02 01:57:43;;;;;;;1.65;0.50;;;15.90;99.90;16.00;99335.00;;;;4989750;27;88496;-64
2023/08/02 02:00:09;;;;;;;1.30;0.82;;;16.00;99.90;16.00;99335.00;;;;4992102;27;91806;-65
2023/08/02 02:02:35;;;;;;;0.77;0.77;;;16.00;99.90;16.00;99338.00;;;;4992335;27;89919;-65
2023/08/02 02:05:01;;;;;;;0.50;0.40;;;16.00;99.90;16.10;99331.00;;;;4988487;27;88214;-65
2023/08/02 02:07:26;;;;;;;2.53;1.42;;;16.00;99.90;16.10;99335.00;;;;4993532;27;95160;-66
2023/08/02 02:09:52;;;;;;;0.45;0.40;;;16.00;99.90;16.10;99333.00;;;;4990928;27;107837;-66
2023/08/02 02:12:17;;;;;;;0.80;0.60;;;16.00;99.90;16.10;99329.00;;;;4993699;27;117405;-65
2023/08/02 02:14:43;;;;;;;0.80;0.80;;;16.00;99.90;16.10;99327.00;;;;4993971;27;106711;-65
2023/08/02 02:17:09;;;;;;;0.65;0.50;;;16.00;99.90;16.10;99332.00;;;;4988560;27;109657;-65
2023/08/02 02:19:34;;;;;;;0.45;0.45;;;16.10;99.90;16.20;99322.00;;;;4992805;27;108308;-65
2023/08/02 02:22:00;;;;;;;0.50;0.50;;;16.10;99.90;16.20;99328.00;;;;4992293;27;87966;-65
2023/08/02 02:24:26;;;;;;;1.05;0.57;;;16.10;99.90;16.20;99332.00;;;;4993688;27;117559;-66
2023/08/02 02:26:51;;;;;;;2.50;0.70;;;16.10;99.90;16.30;99326.00;;;;4994392;27;111313;-66
2023/08/02 02:29:17;;;;;;;0.45;0.30;;;16.20;99.90;16.30;99319.00;;;;4992741;27;106687;-65
2023/08/02 02:31:43;;;;;;;0.90;0.43;;;16.20;99.90;16.30;99337.00;;;;4995261;27;96106;-66
2023/08/02 02:34:08;;;;;;;0.88;0.70;;;16.20;99.90;16.30;99320.00;;;;4986308;27;117591;-65
2023/08/02 02:36:34;;;;;;;0.35;0.30;;;16.30;99.90;16.40;99320.00;;;;4994151;27;110342;-63
2023/08/02 02:38:59;;;;;;;1.13;0.60;;;16.30;99.90;16.40;99329.00;;;;4996050;27;107839;-66
2023/08/02 02:41:25;;;;;;;0.40;0.40;;;16.30;99.90;16.40;99319.00;;;;4989390;27;117895;-65
2023/08/02 02:43:51;;;;;;;0.82;0.52;;;16.30;99.90;16.40;99311.00;;;;4990348;27;90685;-65
2023/08/02 02:46:16;;;;;;;0.80;0.50;;;16.30;99.90;16.40;99314.00;;;;4990758;27;109126;-64
2023/08/02 02:48:42;;;;;;;0.70;0.70;;;16.30;99.90;16.40;99326.00;;;;4986552;27;107864;-65
2023/08/02 02:51:08;;;;;;;0.40;0.40;;;16.30;99.90;16.40;99311.00;;;;4990101;27;117030;-65
2023/08/02 02:53:33;;;;;;;0.98;0.65;;;16.40;99.90;16.50;99316.00;;;;4985193;27;118697;-65
2023/08/02 02:55:59;;;;;;;0.32;0.32;;;16.40;99.90;16.50;99318.00;;;;4989119;27;101054;-65
2023/08/02 02:58:24;;;;;;;0.50;0.47;;;16.40;99.90;16.50;99315.00;;;;4986289;27;107513;-64
2023/08/02 03:00:51;;;;;;;0.73;0.70;;;16.40;99.90;16.60;99312.00;;;;4990784;27;114959;-65
2023/08/02 03:03:17;;;;;;;0.95;0.50;;;16.50;99.90;16.60;99315.00;;;;4993024;27;88163;-65
2023/08/02 03:05:42;;;;;;;1.88;0.93;;;16.50;99.90;16.60;99311.00;;;;4997383;27;91773;-65
2023/08/02 03:08:08;;;;;;;0.75;0.60;;;16.50;99.90;16.60;99298.00;;;;4992265;27;108681;-66
2023/08/02 03:10:34;;;;;;;0.30;0.30;;;16.50;99.90;16.60;99299.00;;;;4988463;27;92079;-64
2023/08/02 03:12:59;;;;;;;1.08;0.63;;;16.50;99.90;16.60;99297.00;;;;4991698;27;118216;-67
2023/08/02 03:15:25;;;;;;;0.77;0.60;;;16.50;99.90;16.60;99315.00;;;;4989032;27;87636;-64
2023/08/02 03:17:51;;;;;;;0.45;0.45;;;16.50;99.90;16.60;99307.00;;;;4992597;27;107537;-64
2023/08/02 03:20:16;;;;;;;1.80;0.80;;;16.50;99.90;16.60;99316.00;;;;4988985;27;118663;-65
2023/08/02 03:22:42;;;;;;;0.43;0.43;;;16.60;99.90;16.60;99314.00;;;;4992301;27;110310;-66
2023/08/02 03:25:11;;;;;;;0.40;0.40;;;16.50;99.90;16.60;99308.00;;;;4994948;27;95828;-66
2023/08/02 03:27:36;;;;;;;1.25;0.55;;;16.50;99.90;16.60;99304.00;;;;4996114;27;108558;-65
2023/08/02 03:30:02;;;;;;;1.05;0.60;;;16.50;99.90;16.60;99300.00;;;;4995446;27;88112;-65
2023/08/02 03:32:29;;;;;;;0.45;0.45;;;16.50;99.90;16.50;99311.00;;;;4991211;27;88687;-66
2023/08/02 03:34:57;;;;;;;0.80;0.80;;;16.40;99.90;16.50;99326.00;;;;4993744;27;111318;-66
2023/08/02 03:37:23;;;;;;;0.80;0.60;;;16.50;99.90;16.50;99317.00;;;;4991981;27;110045;-65
2023/08/02 03:39:49;;;;;;;1.33;0.70;;;16.40;99.90;16.50;99328.00;;;;4995023;27;116599;-65
2023/08/02 03:42:14;;;;;;;1.20;0.75;;;16.40;99.90;16.50;99329.00;;;;4991369;27;115898;-66
2023/08/02 03:44:40;;;;;;;2.58;0.88;;;16.40;99.90;16.50;99319.00;;;;4987406;27;111390;-66
2023/08/02 03:47:12;;;;;;;0.65;0.65;;;16.40;99.90;16.50;99324.00;;;;4993274;27;109157;-65
2023/08/02 03:49:38;;;;;;;0.47;0.45;;;16.40;99.90;16.50;99330.00;;;;4989717;27;116484;-65
2023/08/02 03:52:04;;;;;;;1.65;0.65;;;16.40;99.90;16.50;99332.00;;;;4989873;27;116688;-66
2023/08/02 03:54:30;;;;;;;1.15;0.57;;;16.40;99.90;16.50;99329.00;;;;4988581;27;89349;-66
2023/08/02 03:56:56;;;;;;;0.77;0.77;;;16.70;99.90;16.50;99330.00;;;;4988574;27;108422;-67
2023/08/02 03:59:21;;;;;;;0.60;0.60;;;16.40;99.90;16.60;99334.00;;;;5004652;27;117743;-67
2023/08/02 04:01:47;;;;;;;1.58;1.10;;;16.10;99.90;16.60;99321.00;;;;4986544;27;115737;-65
2023/08/02 04:04:13;;;;;;;0.80;0.50;;;16.50;99.90;16.60;99325.00;;;;4990401;27;87807;-64
2023/08/02 04:06:38;;;;;;;0.50;0.50;;;16.50;99.90;16.70;99324.00;;;;4985672;27;108884;-63
2023/08/02 04:09:07;;;;;;;0.40;0.40;;;16.60;99.90;16.70;99320.00;;;;4988088;27;88196;-66
2023/08/02 04:11:32;;;;;;;0.60;0.50;;;16.60;99.90;16.70;99320.00;;;;4993016;28;117966;-66
2023/08/02 04:13:58;;;;;;;0.40;0.40;;;16.60;99.90;16.80;99330.00;;;;5000731;27;101188;-64
2023/08/02 04:16:24;;;;;;;0.57;0.57;;;16.60;99.90;16.80;99332.00;;;;5014630;27;108409;-65
2023/08/02 04:18:49;;;;;;;0.47;0.35;;;16.60;99.90;16.80;99337.00;;;;4990935;27;117134;-63
2023/08/02 04:21:21;;;;;;;0.63;0.63;;;16.70;99.90;16.80;99352.00;;;;4993461;27;116593;-64
2023/08/02 04:23:50;;;;;;;1.50;0.80;;;16.70;99.90;16.90;99342.00;;;;4993280;27;87798;-66
2023/08/02 04:26:16;;;;;;;0.45;0.45;;;16.70;99.90;16.90;99341.00;;;;4993807;27;87871;-64
2023/08/02 04:28:42;;;;;;;1.15;0.70;;;16.80;99.90;16.90;99335.00;;;;4992761;27;88103;-63
2023/08/02 04:31:07;;;;;;;0.40;0.38;;;16.80;99.90;16.90;99343.00;;;;4990909;27;117069;-64
2023/08/02 04:33:33;;;;;;;0.40;0.28;;;16.80;99.90;16.90;99334.00;;;;4993128;27;110372;-64
2023/08/02 04:35:59;;;;;;;0.95;0.70;;;16.80;99.90;17.00;99348.00;;;;4990564;27;107898;-65
2023/08/02 04:38:26;;;;;;;0.63;0.63;;;16.80;99.90;17.00;99347.00;;;;4993768;27;92052;-65
2023/08/02 04:40:52;;;;;;;0.55;0.55;;;16.90;99.90;17.00;99350.00;;;;4990981;27;88431;-64
2023/08/02 04:43:18;;;;;;;4.35;0.50;;;16.90;99.90;17.00;99336.00;;;;4991609;27;99635;-65
2023/08/02 04:45:43;;;;;;;1.70;0.70;;;16.90;99.90;17.00;99339.00;;;;4992119;27;109277;-64
2023/08/02 04:48:09;;;;;;;1.75;0.85;;;16.90;99.90;17.00;99335.00;;;;4993202;27;117076;-64
2023/08/02 04:50:35;;;;;;;0.82;0.60;;;16.90;99.90;17.00;99344.00;;;;4988893;27;111957;-64
2023/08/02 04:53:01;;;;;;;1.02;0.75;;;16.90;99.90;17.10;99335.00;;;;4988267;27;110749;-63
2023/08/02 04:55:27;;;;;;;0.40;0.40;;;16.90;99.90;17.10;99335.00;;;;4993258;27;88220;-66
2023/08/02 04:57:52;;;;;;;1.88;0.80;;;16.90;99.90;17.20;99336.00;;;;4989762;27;93286;-64
2023/08/02 05:00:18;;;;;;;1.00;0.77;;;17.10;99.90;17.30;99337.00;;;;4994369;27;115915;-64
2023/08/02 05:02:45;;;;;;;0.45;0.45;;;17.10;99.90;17.40;99335.00;;;;4992472;27;109405;-63
2023/08/02 05:05:11;;;;;;;2.15;0.75;;;17.20;99.90;17.40;99331.00;;;;4991648;27;88688;-65
2023/08/02 05:07:38;;;;;;;5.38;0.90;;;17.30;99.90;17.50;99335.00;;;;4994592;27;88324;-65
2023/08/02 05:10:05;;;;;;;0.70;0.55;;;17.40;99.90;17.60;99345.00;;;;4991810;27;89129;-65
2023/08/02 05:12:37;;;;;;;0.82;0.63;;;17.40;99.90;17.60;99340.00;;;;4990495;27;88198;-65
2023/08/02 05:15:04;;;;;;;1.95;0.98;;;17.50;99.90;17.80;99340.00;;;;4987245;27;103027;-64
2023/08/02 05:17:30;;;;;;;3.90;1.20;;;17.60;99.90;17.90;99343.00;;;;4994670;27;88277;-65
2023/08/02 05:20:03;;;;;;;0.57;0.57;;;18.70;99.90;18.00;99334.00;;;;4990806;27;87897;-63
2023/08/02 05:22:31;;;;;;;0.43;0.40;;;17.80;99.90;18.10;99329.00;;;;4988881;27;87888;-65
2023/08/02 05:24:56;;;;;;;0.50;0.50;;;17.90;99.90;18.20;99322.00;;;;4990089;27;88047;-65
2023/08/02 05:27:22;;;;;;;0.93;0.73;;;18.10;99.90;18.30;99319.00;;;;4994941;27;88966;-65
2023/08/02 05:29:51;;;;;;;0.73;0.73;;;18.20;99.90;18.40;99321.00;;;;4991345;27;116314;-65
2023/08/02 05:32:17;;;;;;;0.90;0.90;;;18.30;99.90;18.50;99315.00;;;;4986791;27;88118;-65
2023/08/02 05:34:42;;;;;;;1.60;0.52;;;18.30;99.90;18.50;99324.00;;;;4991754;27;108130;-66
2023/08/02 05:37:08;;;;;;;0.45;0.30;;;18.40;99.90;18.60;99320.00;;;;4988483;27;87923;-66
2023/08/02 05:39:40;;;;;;;0.73;0.63;;;18.40;99.90;18.60;99317.00;;;;4990531;27;117837;-65
2023/08/02 05:42:05;;;;;;;0.52;0.52;;;18.50;99.90;18.60;99313.00;;;;4991137;27;111147;-65
2023/08/02 05:44:31;;;;;;;1.10;0.50;;;18.50;99.90;18.70;99310.00;;;;4990156;27;103894;-66
2023/08/02 05:46:57;;;;;;;0.65;0.65;;;18.50;99.90;18.80;99317.00;;;;4985767;27;87932;-65
2023/08/02 05:49:23;;;;;;;0.70;0.50;;;18.60;99.90;18.90;99318.00;;;;4988778;27;87265;-65
2023/08/02 05:51:49;;;;;;;0.30;0.30;;;18.70;99.90;19.00;99312.00;;;;4992901;27;109961;-64
2023/08/02 05:54:16;;;;;;;0.43;0.43;;;18.80;99.90;19.10;99309.00;;;;4991508;27;87664;-65
2023/08/02 05:56:43;;;;;;;5.28;0.98;;;18.90;99.90;19.10;99305.00;;;;4992083;27;88998;-66
2023/08/02 05:59:08;;;;;;;3.25;0.50;;;18.90;99.90;19.20;99299.00;;;;4988076;27;99586;-65
2023/08/02 06:01:34;;;;;;;3.30;0.65;;;19.00;99.90;19.20;99310.00;;;;4987381;27;108160;-66
2023/08/02 06:04:00;;;;;;;1.58;0.60;;;19.10;99.90;19.20;99307.00;;;;4986441;27;108998;-64
2023/08/02 06:06:26;;;;;;;0.35;0.32;;;19.00;99.90;19.30;99306.00;;;;4983563;27;95412;-65
2023/08/02 06:08:51;;;;;;;1.30;0.95;;;19.10;99.90;19.30;99304.00;;;;4988634;27;88209;-66
2023/08/02 06:11:17;;;;;;;0.50;0.50;;;19.40;99.90;19.40;99298.00;;;;4993368;27;88004;-64
2023/08/02 06:13:43;;;;;;;1.33;0.65;;;19.20;99.90;19.40;99298.00;;;;4992865;27;87811;-65
2023/08/02 06:16:08;;;;;;;1.95;0.63;;;19.20;99.90;19.50;99294.00;;;;4991319;27;87416;-64
2023/08/02 06:18:34;;;;;;;0.57;0.55;;;19.30;99.90;19.50;99300.00;;;;4990060;27;116446;-64
2023/08/02 06:21:00;;;;;;;1.88;0.65;;;19.30;99.90;19.60;99289.00;;;;4990125;27;110343;-63
2023/08/02 06:23:25;;;;;;;1.10;0.88;;;19.30;99.90;19.60;99306.00;;;;4992843;27;107336;-65
2023/08/02 06:25:52;;;;;;;2.60;0.50;;;19.50;99.90;19.70;99296.00;;;;4985527;27;88615;-64
2023/08/02 06:28:17;;;;;;;1.00;0.63;;;19.50;99.90;19.70;99294.00;;;;4985034;27;115203;-64
2023/08/02 06:30:43;;;;;;;2.25;0.88;;;19.40;99.90;19.70;99300.00;;;;4990656;27;110787;-65
2023/08/02 06:33:08;;;;;;;3.60;0.98;;;19.60;99.90;19.80;99308.00;;;;4985812;27;104565;-65
2023/08/02 06:35:34;;;;;;;4.63;0.98;;;19.60;99.90;19.90;99311.00;;;;4988620;27;91941;-66
2023/08/02 06:38:00;;;;;;;1.00;0.93;;;19.70;99.90;19.90;99308.00;;;;4986403;27;118349;-64
2023/08/02 06:40:25;;;;;;;0.65;0.45;;;19.70;99.90;19.90;99313.00;;;;4986781;27;109184;-65
2023/08/02 06:42:51;;;;;;;0.40;0.40;;;19.80;99.90;19.90;99312.00;;;;4984808;27;107926;-65
2023/08/02 06:45:17;;;;;;;1.05;0.40;;;19.70;99.90;19.80;99324.00;;;;5001825;27;117481;-64
2023/08/02 06:47:42;;;;;;;0.82;0.63;;;19.70;99.90;19.80;99328.00;;;;4988431;27;116079;-65
2023/08/02 06:50:08;;;;;;;1.13;0.50;;;19.60;99.90;19.80;99327.00;;;;4988038;27;110439;-64
2023/08/02 06:52:34;;;;;;;0.47;0.40;;;19.60;99.90;19.90;99325.00;;;;4989679;27;87978;-63
2023/08/02 06:55:00;;;;;;;0.30;0.30;;;19.70;99.90;19.90;99315.00;;;;4989190;27;107322;-62
2023/08/02 06:57:26;;;;;;;1.85;0.50;;;19.80;99.90;19.90;99317.00;;;;4986126;27;116875;-64
2023/08/02 06:59:55;;;;;;;5.10;0.63;;;19.80;99.90;19.90;99313.00;;;;4988345;27;87915;-63
2023/08/02 07:02:21;;;;;;;0.45;0.40;;;19.80;99.90;19.90;99305.00;;;;4990685;27;87571;-63
2023/08/02 07:04:47;;;;;;;0.55;0.55;;;19.90;99.90;19.90;99295.00;;;;4988372;27;87203;-63
2023/08/02 07:07:12;;;;;;;1.70;0.70;;;19.70;99.90;20.00;99298.00;;;;4986476;27;88451;-64
2023/08/02 07:09:38;;;;;;;1.08;0.65;;;19.80;99.90;20.10;99308.00;;;;4988980;27;109494;-64
2023/08/02 07:12:04;;;;;;;0.50;0.43;;;19.90;99.90;20.20;99299.00;;;;4986894;27;110196;-64
2023/08/02 07:14:30;;;;;;;2.83;0.85;;;19.90;99.90;20.10;99289.00;;;;4995133;27;91129;-65
2023/08/02 07:16:55;;;;;;;1.00;0.77;;;20.00;99.90;20.10;99296.00;;;;4985946;27;116548;-64
2023/08/02 07:19:21;;;;;;;2.72;0.70;;;19.90;99.90;20.10;99293.00;;;;4988753;28;108965;-64
2023/08/02 07:21:46;;;;;;;0.75;0.68;;;20.00;99.90;20.20;99279.00;;;;4988669;27;107158;-65
2023/08/02 07:24:12;;;;;;;1.05;0.77;;;20.00;99.90;20.20;99289.00;;;;4988447;27;116281;-64
2023/08/02 07:26:38;;;;;;;0.77;0.45;;;20.60;99.90;20.30;99285.00;;;;4988864;27;116888;-65
2023/08/02 07:29:04;;;;;;;2.47;0.98;;;20.00;99.90;20.30;99284.00;;;;4989244;28;103343;-64
2023/08/02 07:31:29;;;;;;;0.73;0.70;;;20.10;99.90;20.30;99288.00;;;;4989649;28;87238;-64
2023/08/02 07:33:55;;;;;;;1.08;0.65;;;20.10;99.90;20.30;99285.00;;;;4986396;27;117285;-64
2023/08/02 07:36:21;;;;;;;0.45;0.43;;;20.20;99.90;20.40;99278.00;;;;4987096;27;118220;-65
2023/08/02 07:38:47;;;;;;;0.55;0.47;;;20.20;99.90;20.40;99289.00;;;;4989867;27;100648;-63
2023/08/02 07:41:13;;;;;;;0.50;0.50;;;20.20;99.90;20.50;99272.00;;;;4988658;27;88140;-64
2023/08/02 07:43:39;;;;;;;1.52;0.77;;;20.30;99.90;20.50;99257.00;;;;4991960;27;90022;-65
2023/08/02 07:46:10;;;;;;;0.52;0.52;;;20.30;99.90;20.50;99261.00;;;;4986339;28;87557;-65
2023/08/02 07:48:35;;;;;;;0.70;0.50;;;20.30;99.90;20.50;99264.00;;;;4991270;27;88140;-64
2023/08/02 07:51:04;;;;;;;2.03;0.60;;;20.40;99.90;20.70;99259.00;;;;4981986;27;108127;-63
2023/08/02 07:53:29;;;;;;;1.15;0.73;;;20.40;99.90;20.80;99247.00;;;;4988399;27;103057;-65
2023/08/02 07:56:02;;;;;;;0.47;0.47;;;20.50;99.90;21.00;99249.00;;;;4981318;27;110116;-63
2023/08/02 07:58:28;;;;;;;2.17;0.82;;;20.70;99.90;21.20;99239.00;;;;4986768;27;87605;-64
2023/08/02 08:00:53;;;;;;;0.77;0.73;;;20.90;99.90;21.30;99244.00;;;;4989292;27;107463;-63
2023/08/02 08:03:19;;;;;;;1.27;0.90;;;21.00;99.90;21.40;99250.00;;;;4995871;27;88053;-64
2023/08/02 08:05:47;;;;;;;0.85;0.65;;;21.10;99.90;21.50;99261.00;;;;4990820;27;116432;-63
2023/08/02 08:08:14;;;;;;;0.63;0.63;;;21.30;99.90;21.50;99263.00;;;;4989804;27;88822;-65
2023/08/02 08:10:39;;;;;;;1.45;0.88;;;21.30;99.50;21.40;99250.00;;;;4988258;27;87675;-64
2023/08/02 08:13:05;;;;;;;0.70;0.60;;;21.30;99.60;21.40;99254.00;;;;4985796;27;117426;-65
2023/08/02 08:15:31;;;;;;;3.65;0.73;;;21.30;99.60;21.50;99252.00;;;;4987633;27;101545;-65
2023/08/02 08:17:56;;;;;;;0.85;0.55;;;21.30;99.60;21.60;99260.00;;;;4989040;27;87280;-65
2023/08/02 08:20:22;;;;;;;3.50;0.85;;;21.30;99.70;21.60;99247.00;;;;4990365;27;87417;-64
2023/08/02 08:22:48;;;;;;;2.92;0.95;;;21.40;99.30;21.70;99247.00;;;;4987047;27;89295;-65
2023/08/02 08:25:13;;;;;;;1.02;0.73;;;21.50;99.20;21.80;99244.00;;;;4987034;27;117895;-64
2023/08/02 08:27:40;;;;;;;0.60;0.55;;;21.60;98.40;21.90;99237.00;;;;4985863;27;110915;-64
2023/08/02 08:30:07;;;;;;;0.88;0.77;;;21.60;98.90;22.10;99243.00;;;;4986797;27;88145;-63
2023/08/02 08:32:33;;;;;;;1.27;0.73;;;21.80;98.40;22.40;99240.00;;;;4985793;27;88630;-63
2023/08/02 08:34:58;;;;;;;0.60;0.60;;;22.10;98.10;22.70;99258.00;;;;4990015;27;112641;-63
2023/08/02 08:37:25;;;;;;;1.17;0.70;;;22.40;96.40;22.70;99249.00;;;;4990466;27;87212;-64
2023/08/02 08:39:51;;;;;;;1.70;0.98;;;22.50;95.30;22.70;99229.00;;;;4984089;27;89488;-64
2023/08/02 08:42:16;;;;;;;0.60;0.60;;;22.50;94.90;22.80;99249.00;;;;4988945;27;116446;-64
2023/08/02 08:44:42;;;;;;;0.65;0.65;;;22.60;94.80;22.80;99242.00;;;;4988646;27;87866;-63
2023/08/02 08:47:08;;;;;;;0.45;0.45;;;22.60;93.90;22.80;99233.00;;;;4991151;27;87792;-64
2023/08/02 08:49:34;;;;;;;0.50;0.40;;;22.60;94.10;22.90;99235.00;;;;4985454;27;88966;-64
2023/08/02 08:52:05;;;;;;;1.95;0.40;;;22.70;94.10;22.80;99231.00;;;;4984822;27;92952;-63
2023/08/02 08:54:33;;;;;;;0.57;0.52;;;22.70;93.60;22.80;99227.00;;;;4986376;27;91054;-65
2023/08/02 08:56:59;;;;;;;0.50;0.50;;;22.70;93.70;23.00;99223.00;;;;4995692;27;87895;-64
2023/08/02 08:59:36;;;;;;;0.63;0.63;;;22.70;93.80;23.10;99234.00;;;;4988758;27;88020;-63
2023/08/02 09:02:02;;;;;;;1.40;0.73;;;22.80;93.40;23.20;99227.00;;;;4988414;27;87444;-64
2023/08/02 09:04:30;;;;;;;0.60;0.60;;;22.90;92.60;23.20;99220.00;;;;4987895;27;87750;-63
2023/08/02 09:06:56;;;;;;;0.60;0.45;;;23.00;92.20;23.30;99217.00;;;;4994482;27;86808;-63
2023/08/02 09:09:21;;;;;;;0.60;0.55;;;23.10;91.70;23.30;99222.00;;;;4992679;27;108321;-64
2023/08/02 09:11:47;;;;;;;1.50;0.50;;;23.20;91.40;23.40;99212.00;;;;4992739;27;93283;-65
2023/08/02 09:14:15;;;;;;;0.98;0.88;;;23.20;91.60;23.40;99220.00;;;;4994830;27;119775;-65
2023/08/02 09:17:01;;;;;;;2.35;0.80;;;23.20;91.20;23.30;99217.00;;;;4992804;27;87597;-65
2023/08/02 09:19:34;;;;;;;2.15;0.80;;;23.20;90.70;23.30;99210.00;;;;4991238;27;87610;-64
2023/08/02 09:22:15;;;;;;;0.80;0.75;;;23.20;90.90;23.30;99208.00;;;;4986040;27;88299;-65
2023/08/02 09:24:44;;;;;;;0.90;0.55;;;23.10;90.60;23.30;99216.00;;;;4987631;27;91243;-64
2023/08/02 09:27:15;;;;;;;1.38;0.50;;;23.10;91.00;23.50;99202.00;;;;4987580;27;91984;-65
2023/08/02 09:29:51;;;;;;;1.45;0.82;;;23.20;91.40;23.60;99207.00;;;;4992812;27;87681;-63
2023/08/02 09:32:18;;;;;;;0.73;0.73;;;23.30;90.40;23.60;99202.00;;;;4995149;27;87431;-64
2023/08/02 09:34:50;;;;;;;0.50;0.50;;;23.40;90.40;23.60;99194.00;;;;4992077;27;87955;-63
2023/08/02 09:37:27;;;;;;;0.60;0.60;;;23.40;89.00;23.60;99194.00;;;;4991203;27;87854;-64
2023/08/02 09:39:52;;;;;;;0.70;0.70;;;23.40;89.60;23.80;99184.00;;;;4997940;27;89085;-63
2023/08/02 09:42:26;;;;;;;1.40;0.63;;;23.50;89.80;24.10;99194.00;;;;4987825;27;117208;-64
2023/08/02 09:44:55;;;;;;;1.17;0.68;;;23.70;89.60;24.20;99178.00;;;;4989885;27;87805;-63
2023/08/02 09:47:21;;;;;;;0.60;0.60;;;23.90;87.60;24.20;99192.00;;;;4991829;27;87818;-64
2023/08/02 09:50:06;;;;;;;0.60;0.40;;;24.00;85.00;24.20;99187.00;;;;4993101;27;87710;-63
2023/08/02 09:52:32;;;;;;;1.17;0.57;;;24.00;84.50;24.20;99181.00;;;;4989332;27;88336;-63
2023/08/02 09:54:58;;;;;;;1.80;0.77;;;24.00;84.10;24.20;99173.00;;;;4991262;28;89325;-65
2023/08/02 09:57:29;;;;;;;0.70;0.65;;;24.00;82.90;24.20;99175.00;;;;4989676;27;87028;-65
2023/08/02 10:00:00;;;;;;;2.35;1.08;;;24.00;83.40;24.20;99165.00;;;;4990149;28;88270;-63
2023/08/02 10:02:28;;;;;;;0.52;0.52;;;24.00;82.80;24.10;99162.00;;;;4986207;28;89374;-65
2023/08/02 10:04:56;;;;;;;0.75;0.38;;;23.90;82.70;24.10;99149.00;;;;4994041;27;117706;-63
2023/08/02 10:07:34;;;;;;;0.63;0.63;;;24.00;82.10;24.10;99145.00;;;;4986791;27;89995;-64
2023/08/02 10:10:06;;;;;;;0.63;0.50;;;23.80;82.00;24.20;99139.00;;;;4985163;27;91923;-64
2023/08/02 10:12:35;;;;;;;0.75;0.60;;;23.90;82.10;24.40;99141.00;;;;4991044;27;101212;-63
2023/08/02 10:15:02;;;;;;;0.95;0.80;;;23.90;80.80;24.50;99144.00;;;;4985833;28;88485;-63
2023/08/02 10:17:31;;;;;;;0.98;0.50;;;24.20;79.60;24.50;99143.00;;;;4994093;27;100963;-64
2023/08/02 10:20:02;;;;;;;1.08;0.63;;;24.20;79.60;24.50;99130.00;;;;4991959;27;87724;-63
2023/08/02 10:22:29;;;;;;;0.32;0.30;;;24.20;79.30;24.50;99136.00;;;;4993296;27;88918;-63
2023/08/02 10:24:56;;;;;;;0.35;0.35;;;24.20;79.80;24.60;99145.00;;;;4990889;27;87924;-62
2023/08/02 10:27:23;;;;;;;2.05;0.90;;;24.30;79.80;24.70;99123.00;;;;4988734;27;98720;-63
2023/08/02 10:29:49;;;;;;;0.47;0.47;;;24.40;79.90;24.80;99123.00;;;;4989545;27;88694;-63
2023/08/02 10:32:18;;;;;;;0.50;0.50;;;24.50;78.90;24.90;99126.00;;;;4996146;27;116838;-64
2023/08/02 10:34:47;;;;;;;0.55;0.55;;;24.60;79.40;24.90;99122.00;;;;4991847;27;88095;-64
2023/08/02 10:37:14;;;;;;;0.50;0.50;;;24.60;76.10;24.90;99122.00;;;;4991190;27;87802;-63
2023/08/02 10:39:46;;;;;;;0.60;0.47;;;24.60;76.40;25.00;99108.00;;;;4973770;27;87801;-64
2023/08/02 10:43:01;;;;;;;1.25;0.50;;;24.70;76.50;25.00;99090.00;;;;4986855;27;88699;-64
2023/08/02 10:45:27;;;;;;;1.15;0.70;;;24.80;71.60;25.10;99097.00;;;;4984051;27;110634;-63
2023/08/02 10:48:23;;;;;;;0.90;0.90;;;24.80;72.50;25.10;99082.00;;;;4991313;27;87110;-66
2023/08/02 10:50:49;;;;;;;0.95;0.60;;;24.90;73.30;25.20;99083.00;;;;4987159;27;87841;-64